Time;durP1;ratioP1;P1;durP2;ratioP2;P2;SDS_P1;SDS_P2;PMS_P1;PMS_P2;Temp;Humidity;BMP_temperature;BMP_pressure;BME280_temperature;BME280_humidity;BME280_pressure;Samples;Min_cycle;Max_cycle;Signal;HPM_P1;HPM_P2
2023/09/15 00:00:30;;;;;;;1.02;0.80;;;19.40;63.00;;;;;;6125412;23;20594;-83
2023/09/15 00:02:57;;;;;;;1.10;1.00;;;19.30;63.00;;;;;;6101580;23;20211;-81
2023/09/15 00:05:24;;;;;;;0.95;0.80;;;19.30;62.90;;;;;;6151231;22;20167;-85
2023/09/15 00:07:51;;;;;;;1.40;1.08;;;19.30;62.80;;;;;;6124592;23;20219;-81
2023/09/15 00:10:19;;;;;;;1.88;0.90;;;19.30;62.90;;;;;;6150828;22;20211;-83
2023/09/15 00:12:44;;;;;;;0.95;0.93;;;19.30;63.00;;;;;;6101849;23;20155;-81
2023/09/15 00:15:11;;;;;;;0.77;0.77;;;19.40;63.10;;;;;;6101058;23;20170;-82
2023/09/15 00:17:37;;;;;;;1.10;0.95;;;19.30;63.00;;;;;;6151284;23;20188;-85
2023/09/15 00:20:12;;;;;;;0.90;0.80;;;19.30;63.10;;;;;;6125507;23;20139;-82
2023/09/15 00:22:40;;;;;;;0.70;0.70;;;19.30;63.00;;;;;;6124732;22;20242;-82
2023/09/15 00:25:06;;;;;;;1.27;1.05;;;19.30;63.20;;;;;;6101133;23;20183;-79
2023/09/15 00:27:32;;;;;;;1.10;0.90;;;19.30;63.00;;;;;;6151283;23;20132;-82
2023/09/15 00:29:58;;;;;;;1.10;0.90;;;19.30;63.10;;;;;;6151379;22;20193;-80
2023/09/15 00:32:25;;;;;;;1.35;0.90;;;19.30;63.00;;;;;;6125207;23;20565;-82
2023/09/15 00:34:51;;;;;;;0.80;0.80;;;19.40;63.20;;;;;;6125176;23;20155;-81
2023/09/15 00:37:17;;;;;;;1.13;1.02;;;19.30;63.20;;;;;;6100904;23;20590;-80
2023/09/15 00:39:43;;;;;;;1.00;0.85;;;19.30;63.10;;;;;;6151418;22;20147;-83
2023/09/15 00:42:08;;;;;;;1.05;0.85;;;19.30;63.10;;;;;;6125366;23;20146;-82
2023/09/15 00:44:34;;;;;;;1.00;0.90;;;19.30;63.10;;;;;;6124942;23;20203;-81
2023/09/15 00:47:00;;;;;;;1.05;0.85;;;19.30;63.10;;;;;;6151057;22;20639;-81
2023/09/15 00:49:26;;;;;;;1.08;0.80;;;19.30;63.10;;;;;;6151119;22;20159;-81
2023/09/15 00:51:52;;;;;;;1.17;0.95;;;19.30;63.10;;;;;;6151292;22;20139;-79
2023/09/15 00:54:18;;;;;;;0.93;0.85;;;19.30;63.20;;;;;;6100817;23;20143;-83
2023/09/15 00:56:47;;;;;;;0.80;0.80;;;19.30;63.20;;;;;;6101653;23;20519;-83
2023/09/15 00:59:13;;;;;;;0.88;0.88;;;19.30;63.20;;;;;;6083840;23;20242;-82
2023/09/15 01:01:40;;;;;;;0.93;0.88;;;19.30;63.20;;;;;;6133116;23;20150;-82
2023/09/15 01:04:08;;;;;;;1.10;0.90;;;19.30;63.30;;;;;;6132777;23;20175;-81
2023/09/15 01:06:33;;;;;;;0.63;0.60;;;19.40;63.30;;;;;;6159311;22;20634;-82
2023/09/15 01:09:05;;;;;;;1.00;0.90;;;19.30;63.30;;;;;;6153670;22;20153;-81
2023/09/15 01:11:31;;;;;;;1.25;0.93;;;19.30;63.30;;;;;;6176078;23;20155;-82
2023/09/15 01:14:01;;;;;;;1.50;1.10;;;19.30;63.20;;;;;;6151203;22;20139;-82
2023/09/15 01:16:34;;;;;;;0.88;0.80;;;19.30;63.40;;;;;;6201350;23;20152;-82
2023/09/15 01:19:16;;;;;;;1.02;0.85;;;19.30;63.30;;;;;;6151089;22;20143;-83
2023/09/15 01:22:12;;;;;;;0.98;0.88;;;19.40;63.40;;;;;;6150498;23;20568;-84
2023/09/15 01:25:09;;;;;;;0.90;0.80;;;19.30;64.20;;;;;;6080476;23;20207;-81
2023/09/15 01:27:47;;;;;;;1.00;0.90;;;19.30;63.40;;;;;;6121524;23;20572;-83
2023/09/15 01:30:13;;;;;;;1.02;0.90;;;19.30;63.40;;;;;;6120099;23;20136;-81
2023/09/15 01:32:41;;;;;;;1.17;1.00;;;19.30;63.50;;;;;;6121954;23;20186;-80
2023/09/15 01:35:07;;;;;;;1.08;0.98;;;19.20;63.40;;;;;;6121282;23;20132;-84
2023/09/15 01:37:34;;;;;;;1.20;0.95;;;19.30;63.40;;;;;;6119856;23;20154;-82
2023/09/15 01:39:59;;;;;;;1.00;0.90;;;19.30;63.40;;;;;;6120018;23;20231;-81
2023/09/15 01:42:25;;;;;;;0.75;0.75;;;19.30;63.50;;;;;;6119956;23;20180;-83
2023/09/15 01:44:51;;;;;;;1.08;0.80;;;19.30;63.50;;;;;;6095810;23;20191;-82
2023/09/15 01:47:19;;;;;;;1.05;0.95;;;19.30;63.60;;;;;;6095001;23;20576;-83
2023/09/15 01:49:45;;;;;;;1.13;0.90;;;19.30;63.60;;;;;;6095819;23;20141;-81
2023/09/15 01:52:10;;;;;;;1.33;1.00;;;19.30;63.60;;;;;;6095506;23;20464;-81
2023/09/15 01:54:36;;;;;;;0.88;0.88;;;19.30;64.50;;;;;;6095577;23;20634;-82
2023/09/15 01:57:03;;;;;;;1.20;1.10;;;19.30;63.60;;;;;;6095184;23;20623;-82
2023/09/15 01:59:29;;;;;;;0.90;0.90;;;19.30;63.70;;;;;;6121243;23;20216;-82
2023/09/15 02:01:55;;;;;;;1.05;0.88;;;19.30;63.70;;;;;;6095508;23;20140;-83
2023/09/15 02:04:21;;;;;;;1.20;0.90;;;19.30;63.60;;;;;;6121041;23;20177;-82
2023/09/15 02:06:46;;;;;;;0.60;0.60;;;19.30;63.70;;;;;;6121114;23;20146;-81
2023/09/15 02:09:17;;;;;;;0.90;0.90;;;19.30;63.70;;;;;;6118543;23;20564;-82
2023/09/15 02:11:42;;;;;;;0.95;0.80;;;19.30;63.70;;;;;;6119764;23;20217;-80
2023/09/15 02:14:08;;;;;;;0.73;0.70;;;19.30;63.70;;;;;;6119892;23;20590;-84
2023/09/15 02:16:34;;;;;;;1.10;1.00;;;19.30;63.70;;;;;;6119524;23;20179;-82
2023/09/15 02:19:01;;;;;;;1.10;1.00;;;19.30;63.70;;;;;;6121226;23;20128;-80
2023/09/15 02:21:27;;;;;;;0.88;0.75;;;19.30;63.70;;;;;;6119417;23;20136;-84
2023/09/15 02:23:52;;;;;;;1.10;1.00;;;19.30;63.70;;;;;;6119417;22;20195;-81
2023/09/15 02:26:21;;;;;;;1.27;1.05;;;19.30;63.80;;;;;;6119737;23;20568;-80
2023/09/15 02:28:47;;;;;;;1.00;0.90;;;19.30;63.80;;;;;;6119435;23;20568;-80
2023/09/15 02:31:12;;;;;;;1.00;0.90;;;19.30;63.80;;;;;;6095409;23;20136;-83
2023/09/15 02:33:38;;;;;;;1.13;0.90;;;19.30;63.80;;;;;;6119952;23;20144;-81
2023/09/15 02:36:04;;;;;;;1.50;1.13;;;19.30;63.80;;;;;;6122070;23;20206;-80
2023/09/15 02:38:30;;;;;;;1.00;0.90;;;19.30;63.80;;;;;;6072180;23;20661;-83
2023/09/15 02:40:56;;;;;;;1.20;0.82;;;19.20;63.80;;;;;;6122288;23;20128;-81
2023/09/15 02:43:22;;;;;;;1.20;1.00;;;19.30;63.90;;;;;;6122064;23;20231;-81
2023/09/15 02:45:47;;;;;;;0.90;0.88;;;19.20;64.70;;;;;;6121938;23;20243;-81
2023/09/15 02:48:13;;;;;;;0.90;0.77;;;19.20;64.00;;;;;;6120761;23;20145;-83
2023/09/15 02:50:42;;;;;;;1.05;0.93;;;19.20;64.00;;;;;;6120647;23;20206;-82
2023/09/15 02:53:08;;;;;;;1.10;1.00;;;19.20;64.00;;;;;;6122363;23;20467;-80
2023/09/15 02:55:37;;;;;;;0.98;0.80;;;19.20;64.00;;;;;;6096450;23;20145;-80
2023/09/15 02:58:04;;;;;;;0.88;0.80;;;19.20;64.00;;;;;;6122043;23;20184;-81
2023/09/15 03:00:30;;;;;;;1.10;0.95;;;19.20;64.00;;;;;;6120860;23;20136;-82
2023/09/15 03:02:56;;;;;;;1.50;1.00;;;19.30;64.10;;;;;;6120604;23;20858;-80
2023/09/15 03:05:21;;;;;;;1.27;1.05;;;19.20;64.00;;;;;;6120670;23;20213;-81
2023/09/15 03:07:47;;;;;;;0.95;0.80;;;19.30;64.00;;;;;;6121069;23;20148;-83
2023/09/15 03:10:13;;;;;;;1.02;0.93;;;19.20;64.00;;;;;;6121810;23;20140;-83
2023/09/15 03:12:39;;;;;;;0.90;0.80;;;19.20;64.00;;;;;;6096417;23;20141;-80
2023/09/15 03:15:07;;;;;;;1.00;0.88;;;19.20;64.00;;;;;;6096196;23;20155;-81
2023/09/15 03:17:34;;;;;;;1.05;0.90;;;19.20;64.10;;;;;;6120905;23;20140;-79
2023/09/15 03:20:00;;;;;;;1.10;1.00;;;19.30;64.10;;;;;;6120734;23;20144;-83
2023/09/15 03:22:27;;;;;;;0.95;0.85;;;19.20;64.10;;;;;;6122508;22;20136;-81
2023/09/15 03:24:54;;;;;;;0.80;0.77;;;19.20;64.10;;;;;;6101502;23;20167;-81
2023/09/15 03:27:21;;;;;;;1.10;1.00;;;19.20;64.20;;;;;;6151335;23;20162;-80
2023/09/15 03:29:46;;;;;;;1.23;0.70;;;19.30;64.20;;;;;;6125871;23;20140;-80
2023/09/15 03:32:12;;;;;;;1.00;0.90;;;19.10;64.20;;;;;;6151487;22;20192;-80
2023/09/15 03:34:38;;;;;;;1.10;1.00;;;19.20;64.20;;;;;;6125217;23;20224;-81
2023/09/15 03:37:05;;;;;;;0.90;0.80;;;19.20;64.20;;;;;;6151784;22;20489;-84
2023/09/15 03:39:34;;;;;;;1.30;0.98;;;19.30;64.30;;;;;;6151388;22;20163;-81
2023/09/15 03:42:00;;;;;;;1.15;1.05;;;19.20;64.20;;;;;;6177210;23;20156;-82
2023/09/15 03:44:26;;;;;;;1.10;0.90;;;19.20;64.20;;;;;;6124816;23;20222;-83
2023/09/15 03:46:52;;;;;;;0.80;0.80;;;19.20;64.30;;;;;;6125240;23;20151;-82
2023/09/15 03:49:18;;;;;;;1.45;1.20;;;19.20;64.30;;;;;;6125630;23;20147;-80
2023/09/15 03:51:44;;;;;;;1.08;0.80;;;19.20;64.30;;;;;;6151421;22;20198;-80
2023/09/15 03:54:09;;;;;;;0.68;0.68;;;19.20;64.30;;;;;;6125353;23;20214;-82
2023/09/15 03:56:35;;;;;;;1.05;0.95;;;19.20;64.30;;;;;;6125373;23;20136;-84
2023/09/15 03:59:03;;;;;;;2.42;1.00;;;19.20;64.40;;;;;;6125265;23;20519;-82
2023/09/15 04:01:29;;;;;;;1.15;0.90;;;19.20;64.30;;;;;;6101171;23;20183;-80
2023/09/15 04:03:56;;;;;;;0.80;0.80;;;19.20;64.40;;;;;;6125534;23;20124;-81
2023/09/15 04:06:21;;;;;;;0.85;0.80;;;19.10;64.30;;;;;;6151636;22;20159;-80
2023/09/15 04:08:47;;;;;;;1.00;0.90;;;19.20;64.40;;;;;;6124209;23;20148;-82
2023/09/15 04:11:13;;;;;;;1.05;0.95;;;19.30;64.50;;;;;;6151056;22;20632;-81
2023/09/15 04:13:39;;;;;;;0.80;0.80;;;19.20;65.30;;;;;;6100980;23;20183;-80
2023/09/15 04:16:05;;;;;;;0.60;0.60;;;19.20;64.50;;;;;;6151802;22;20140;-80
2023/09/15 04:18:32;;;;;;;1.17;1.08;;;19.20;64.40;;;;;;6101148;23;20597;-84
2023/09/15 04:20:58;;;;;;;1.10;0.90;;;19.20;64.40;;;;;;6151014;22;20160;-80
2023/09/15 04:23:23;;;;;;;1.00;0.90;;;19.20;64.50;;;;;;6150822;22;20199;-81
2023/09/15 04:25:49;;;;;;;0.75;0.75;;;19.20;64.40;;;;;;6125132;23;20183;-81
2023/09/15 04:28:15;;;;;;;0.90;0.80;;;19.20;64.30;;;;;;6151059;22;20159;-82
2023/09/15 04:30:42;;;;;;;1.13;0.90;;;19.20;64.50;;;;;;6101132;23;20170;-81
2023/09/15 04:33:07;;;;;;;0.73;0.73;;;19.20;64.50;;;;;;6125013;23;20151;-82
2023/09/15 04:35:33;;;;;;;1.65;0.88;;;19.20;64.60;;;;;;6151217;22;20149;-82
2023/09/15 04:37:59;;;;;;;0.82;0.80;;;19.20;64.60;;;;;;6151142;22;20132;-83
2023/09/15 04:40:25;;;;;;;1.05;0.80;;;19.20;64.60;;;;;;6100935;23;20151;-80
2023/09/15 04:42:51;;;;;;;0.80;0.80;;;19.20;64.60;;;;;;6151243;22;20478;-80
2023/09/15 04:45:17;;;;;;;1.13;0.98;;;19.20;64.60;;;;;;6124769;23;20500;-78
2023/09/15 04:47:42;;;;;;;1.20;1.00;;;19.20;64.60;;;;;;6100820;23;20170;-82
2023/09/15 04:50:08;;;;;;;0.88;0.80;;;19.20;64.70;;;;;;6125390;23;20181;-81
2023/09/15 04:52:34;;;;;;;0.80;0.80;;;19.20;64.70;;;;;;6125166;23;20457;-83
2023/09/15 04:55:01;;;;;;;0.93;0.80;;;19.20;64.70;;;;;;6076831;23;20179;-81
2023/09/15 04:57:26;;;;;;;0.82;0.80;;;19.20;64.70;;;;;;6201657;23;20159;-79
2023/09/15 04:59:53;;;;;;;0.80;0.80;;;19.20;64.70;;;;;;6151047;22;20136;-80
2023/09/15 05:02:23;;;;;;;0.95;0.70;;;19.20;64.80;;;;;;6101170;23;20146;-80
2023/09/15 05:04:51;;;;;;;1.15;0.82;;;19.20;64.70;;;;;;6200327;23;20190;-80
2023/09/15 05:07:17;;;;;;;1.00;0.90;;;19.20;64.70;;;;;;6124727;23;20155;-81
2023/09/15 05:09:43;;;;;;;0.82;0.80;;;19.10;64.60;;;;;;6124652;23;20567;-82
2023/09/15 05:12:08;;;;;;;1.08;0.95;;;19.20;64.60;;;;;;6151025;22;20219;-82
2023/09/15 05:14:34;;;;;;;1.25;1.08;;;19.20;64.70;;;;;;6100694;23;20143;-81
2023/09/15 05:17:00;;;;;;;0.73;0.73;;;19.20;64.70;;;;;;6125087;23;20131;-81
2023/09/15 05:19:26;;;;;;;0.80;0.73;;;19.20;64.60;;;;;;6124997;23;20164;-81
2023/09/15 05:21:51;;;;;;;1.08;0.98;;;19.20;64.60;;;;;;6150858;22;20719;-80
2023/09/15 05:24:17;;;;;;;0.98;0.90;;;19.30;64.70;;;;;;6120099;22;20196;-80
2023/09/15 05:26:43;;;;;;;0.98;0.88;;;19.20;64.70;;;;;;6120065;23;20197;-80
2023/09/15 05:29:08;;;;;;;1.85;0.90;;;19.20;64.70;;;;;;6120176;23;20133;-82
2023/09/15 05:31:34;;;;;;;1.83;0.90;;;19.20;64.70;;;;;;6119750;23;20163;-83
2023/09/15 05:34:00;;;;;;;1.38;0.88;;;19.30;64.80;;;;;;6095262;23;20624;-84
2023/09/15 05:36:26;;;;;;;1.17;0.80;;;19.20;64.70;;;;;;6121377;23;20171;-80
2023/09/15 05:38:52;;;;;;;1.00;0.93;;;19.20;64.80;;;;;;6121487;23;20136;-82
2023/09/15 05:41:18;;;;;;;1.00;0.70;;;19.30;65.00;;;;;;6121794;23;20225;-82
2023/09/15 05:43:44;;;;;;;2.05;0.80;;;19.30;65.10;;;;;;6095637;23;20140;-83
2023/09/15 05:46:10;;;;;;;0.80;0.80;;;19.30;65.10;;;;;;6121219;23;20511;-79
2023/09/15 05:48:36;;;;;;;0.80;0.80;;;19.20;65.10;;;;;;6120336;23;20140;-80
2023/09/15 05:51:06;;;;;;;0.90;0.80;;;19.20;65.30;;;;;;6121668;23;20143;-82
2023/09/15 05:53:32;;;;;;;0.82;0.80;;;19.20;65.60;;;;;;6121212;23;20190;-82
2023/09/15 05:55:58;;;;;;;0.95;0.70;;;19.30;65.90;;;;;;6095760;23;20197;-83
2023/09/15 05:58:24;;;;;;;0.90;0.70;;;19.20;66.10;;;;;;6119671;23;20574;-80
2023/09/15 06:00:54;;;;;;;0.98;0.82;;;19.20;66.30;;;;;;6095623;23;20140;-78
2023/09/15 06:03:20;;;;;;;0.80;0.70;;;19.20;66.50;;;;;;6120035;23;20179;-81
2023/09/15 06:05:46;;;;;;;0.68;0.68;;;19.20;66.70;;;;;;6121246;23;20216;-83
2023/09/15 06:08:11;;;;;;;0.80;0.70;;;19.20;66.80;;;;;;6118358;23;20210;-80
2023/09/15 06:10:39;;;;;;;0.73;0.63;;;19.10;66.90;;;;;;6119420;23;20231;-84
2023/09/15 06:13:05;;;;;;;0.70;0.70;;;19.10;67.00;;;;;;6121206;23;20128;-81
2023/09/15 06:15:31;;;;;;;0.60;0.60;;;19.10;67.20;;;;;;6119883;23;20568;-81
2023/09/15 06:17:57;;;;;;;1.05;0.70;;;19.10;67.20;;;;;;6119498;23;20182;-84
2023/09/15 06:20:26;;;;;;;0.65;0.65;;;19.10;67.30;;;;;;6119580;23;20590;-84
2023/09/15 06:22:52;;;;;;;0.68;0.68;;;19.00;67.40;;;;;;6119204;22;20671;-80
2023/09/15 06:25:17;;;;;;;0.70;0.70;;;19.10;67.80;;;;;;6119357;23;20210;-81
2023/09/15 06:27:43;;;;;;;1.30;0.60;;;19.00;67.60;;;;;;6071208;23;20182;-81
2023/09/15 06:30:09;;;;;;;0.80;0.60;;;19.10;68.00;;;;;;6119419;23;20452;-83
2023/09/15 06:32:35;;;;;;;0.88;0.70;;;19.00;68.10;;;;;;6071175;23;20163;-79
2023/09/15 06:35:01;;;;;;;0.80;0.70;;;19.10;68.40;;;;;;6119159;23;20580;-81
2023/09/15 06:37:27;;;;;;;1.17;0.80;;;19.00;68.30;;;;;;6120834;23;20472;-81
2023/09/15 06:39:52;;;;;;;0.88;0.77;;;19.10;68.50;;;;;;6119439;23;20540;-82
2023/09/15 06:42:18;;;;;;;0.68;0.60;;;19.00;68.50;;;;;;6095076;23;20175;-80
2023/09/15 06:44:43;;;;;;;0.65;0.63;;;19.00;68.60;;;;;;6095101;23;20176;-83
2023/09/15 06:47:09;;;;;;;0.70;0.70;;;19.00;68.70;;;;;;6119347;23;20141;-81
2023/09/15 06:49:35;;;;;;;1.00;0.90;;;19.00;68.90;;;;;;6119468;23;20867;-81
2023/09/15 06:52:00;;;;;;;0.60;0.60;;;19.00;69.00;;;;;;6119550;23;20468;-82
2023/09/15 06:54:26;;;;;;;0.63;0.63;;;19.10;69.10;;;;;;6119469;23;20167;-81
2023/09/15 06:56:52;;;;;;;0.70;0.52;;;19.10;69.10;;;;;;6120917;23;20463;-80
2023/09/15 06:59:17;;;;;;;0.70;0.60;;;19.00;69.20;;;;;;6095130;23;20147;-79
2023/09/15 07:01:43;;;;;;;0.77;0.70;;;19.10;69.40;;;;;;6119252;23;20460;-83
2023/09/15 07:04:13;;;;;;;0.50;0.50;;;19.00;69.60;;;;;;6120687;23;20176;-83
2023/09/15 07:06:40;;;;;;;0.70;0.70;;;19.10;69.80;;;;;;6220929;23;20214;-84
2023/09/15 07:09:08;;;;;;;0.70;0.70;;;19.00;70.60;;;;;;6219723;23;20163;-83
2023/09/15 07:11:34;;;;;;;0.50;0.50;;;19.00;69.90;;;;;;6093234;23;20157;-81
2023/09/15 07:14:03;;;;;;;0.88;0.55;;;19.10;70.10;;;;;;6118818;23;20590;-85
2023/09/15 07:16:32;;;;;;;0.68;0.68;;;19.10;70.20;;;;;;6195714;23;20461;-83
2023/09/15 07:18:58;;;;;;;0.75;0.57;;;19.10;70.20;;;;;;6196137;23;20216;-81
2023/09/15 07:21:24;;;;;;;1.38;0.90;;;19.10;70.30;;;;;;6120710;23;20199;-82
2023/09/15 07:23:50;;;;;;;1.02;0.70;;;19.10;70.40;;;;;;6141823;22;20194;-83
2023/09/15 07:26:16;;;;;;;0.65;0.65;;;19.10;70.10;;;;;;6134402;23;20158;-82
2023/09/15 07:28:42;;;;;;;0.65;0.65;;;19.00;70.40;;;;;;6110778;23;20147;-82
2023/09/15 07:31:09;;;;;;;0.90;0.80;;;19.20;70.50;;;;;;6160785;22;20205;-80
2023/09/15 07:33:35;;;;;;;0.80;0.80;;;19.10;70.40;;;;;;6134710;23;20140;-82
2023/09/15 07:36:05;;;;;;;0.77;0.70;;;19.20;70.90;;;;;;6154301;22;20187;-79
2023/09/15 07:38:37;;;;;;;0.90;0.90;;;19.30;71.00;;;;;;6204397;23;20159;-82
2023/09/15 07:41:07;;;;;;;1.25;0.80;;;19.20;70.30;;;;;;6203648;23;20159;-82
2023/09/15 07:43:34;;;;;;;0.73;0.68;;;19.40;70.60;;;;;;6077092;23;20158;-80
2023/09/15 07:46:00;;;;;;;0.82;0.77;;;19.40;70.10;;;;;;6126228;23;20167;-81
2023/09/15 07:48:29;;;;;;;0.73;0.70;;;19.40;70.10;;;;;;6152684;22;20494;-80
2023/09/15 07:50:55;;;;;;;0.70;0.70;;;19.40;70.00;;;;;;6126689;23;20644;-82
2023/09/15 07:53:22;;;;;;;0.60;0.60;;;19.40;70.20;;;;;;6079402;23;20143;-79
2023/09/15 07:55:48;;;;;;;0.85;0.80;;;19.50;69.90;;;;;;6126900;23;20143;-81
2023/09/15 07:58:14;;;;;;;0.85;0.80;;;19.50;69.90;;;;;;6100487;23;20172;-83
2023/09/15 08:00:39;;;;;;;1.00;0.90;;;19.50;69.80;;;;;;6078072;23;20139;-84
2023/09/15 08:03:05;;;;;;;1.30;1.00;;;19.40;69.80;;;;;;6077948;23;20144;-82
2023/09/15 08:05:31;;;;;;;0.60;0.60;;;19.50;69.50;;;;;;6125606;23;20160;-83
2023/09/15 08:07:57;;;;;;;1.10;0.93;;;19.50;69.70;;;;;;6151993;22;20193;-82
2023/09/15 08:10:26;;;;;;;1.10;0.88;;;19.50;70.00;;;;;;6203202;23;20595;-85
2023/09/15 08:12:53;;;;;;;0.90;0.80;;;19.50;69.80;;;;;;6177277;23;20155;-80
2023/09/15 08:15:21;;;;;;;0.82;0.80;;;19.50;70.20;;;;;;6102294;23;20140;-82
2023/09/15 08:17:47;;;;;;;0.93;0.82;;;19.50;69.70;;;;;;6125994;23;20128;-82
2023/09/15 08:20:14;;;;;;;0.88;0.80;;;19.50;69.80;;;;;;6126526;23;20683;-82
2023/09/15 08:22:40;;;;;;;0.90;0.90;;;19.50;69.90;;;;;;6101981;22;20159;-82
2023/09/15 08:25:07;;;;;;;1.45;1.05;;;19.50;69.70;;;;;;6101884;23;20171;-82
2023/09/15 08:27:33;;;;;;;1.25;1.10;;;19.60;69.60;;;;;;6101573;23;20571;-82
2023/09/15 08:29:59;;;;;;;0.80;0.80;;;19.60;69.40;;;;;;6126490;23;20135;-79
2023/09/15 08:32:25;;;;;;;1.35;1.00;;;19.60;69.20;;;;;;6151983;22;20185;-83
2023/09/15 08:34:53;;;;;;;0.98;0.98;;;19.60;69.30;;;;;;6151347;22;20136;-79
2023/09/15 08:37:19;;;;;;;1.08;0.95;;;19.50;69.20;;;;;;6126678;23;20148;-83
2023/09/15 08:39:50;;;;;;;1.10;1.00;;;19.50;69.10;;;;;;6126279;23;20150;-86
2023/09/15 08:42:26;;;;;;;1.08;0.98;;;19.50;69.20;;;;;;6125283;23;20189;-83
2023/09/15 08:44:52;;;;;;;0.80;0.80;;;19.50;69.30;;;;;;6100730;23;20187;-85
2023/09/15 08:47:20;;;;;;;0.80;0.80;;;19.50;69.30;;;;;;6076292;23;20151;-81
2023/09/15 08:49:46;;;;;;;0.80;0.80;;;19.50;69.00;;;;;;6125198;23;20138;-82
2023/09/15 08:52:13;;;;;;;1.23;1.13;;;19.50;68.90;;;;;;6100551;23;20551;-85
2023/09/15 08:54:41;;;;;;;1.17;1.02;;;19.60;68.70;;;;;;6125363;23;20140;-87
2023/09/15 08:57:07;;;;;;;1.30;1.20;;;19.60;68.60;;;;;;6176933;23;20205;-83
2023/09/15 08:59:33;;;;;;;1.10;1.00;;;19.60;68.50;;;;;;6124861;23;20148;-82
2023/09/15 09:01:58;;;;;;;1.20;0.95;;;19.60;68.40;;;;;;6125057;23;20738;-81
2023/09/15 09:04:24;;;;;;;0.82;0.80;;;19.50;68.50;;;;;;6150923;22;20199;-84
2023/09/15 09:06:51;;;;;;;0.93;0.80;;;19.50;68.40;;;;;;6151051;22;20201;-83
2023/09/15 09:09:18;;;;;;;1.17;1.08;;;19.50;68.40;;;;;;6175426;23;20159;-87
2023/09/15 09:11:45;;;;;;;1.10;1.00;;;19.50;68.40;;;;;;6201085;23;20159;-83
2023/09/15 09:14:12;;;;;;;1.27;1.17;;;19.50;68.50;;;;;;6201314;23;20752;-82
2023/09/15 09:16:42;;;;;;;2.47;1.00;;;19.50;68.60;;;;;;6124961;23;20181;-84
2023/09/15 09:19:08;;;;;;;1.30;1.10;;;19.50;68.40;;;;;;6150738;22;20547;-82
2023/09/15 09:21:34;;;;;;;1.63;1.02;;;19.50;68.40;;;;;;6100231;23;20381;-84
2023/09/15 09:24:00;;;;;;;0.90;0.90;;;19.50;68.40;;;;;;6150653;22;20214;-83
2023/09/15 09:26:26;;;;;;;1.45;1.10;;;19.50;68.30;;;;;;6100440;23;20142;-85
2023/09/15 09:28:57;;;;;;;1.23;1.13;;;19.40;68.30;;;;;;6150886;22;20140;-86
2023/09/15 09:31:24;;;;;;;1.10;1.00;;;19.40;68.40;;;;;;6101303;23;20136;-82
2023/09/15 09:33:50;;;;;;;1.30;1.20;;;19.50;68.40;;;;;;6124972;23;20135;-85
2023/09/15 09:36:16;;;;;;;1.63;1.10;;;19.50;68.30;;;;;;6124859;23;20145;-84
2023/09/15 09:38:42;;;;;;;0.95;0.90;;;19.50;68.40;;;;;;6124578;23;20523;-86
2023/09/15 09:41:11;;;;;;;1.33;1.10;;;19.50;68.40;;;;;;6100710;23;20547;-82
2023/09/15 09:43:38;;;;;;;1.73;1.30;;;19.50;68.40;;;;;;6100085;23;20171;-86
2023/09/15 09:46:06;;;;;;;1.20;1.10;;;19.40;69.10;;;;;;6150910;22;20168;-84
2023/09/15 09:48:35;;;;;;;1.15;1.05;;;19.50;68.30;;;;;;6151286;22;20208;-82
2023/09/15 09:51:01;;;;;;;1.67;1.35;;;19.50;68.30;;;;;;6124894;23;20136;-82
2023/09/15 09:53:29;;;;;;;1.20;1.10;;;19.50;68.30;;;;;;6124720;23;20147;-86
2023/09/15 09:55:56;;;;;;;6.70;1.42;;;19.50;68.30;;;;;;6124745;23;20140;-83
2023/09/15 09:58:23;;;;;;;1.42;1.33;;;19.50;68.40;;;;;;6150671;22;20139;-82
2023/09/15 10:00:50;;;;;;;1.77;1.20;;;19.50;68.40;;;;;;6100428;23;20151;-82
2023/09/15 10:03:17;;;;;;;1.77;1.20;;;19.50;68.40;;;;;;6150397;22;20132;-81
2023/09/15 10:05:42;;;;;;;1.30;1.20;;;19.60;68.20;;;;;;6124804;23;20171;-84
2023/09/15 10:08:09;;;;;;;1.20;1.10;;;19.50;68.20;;;;;;6149992;22;20155;-81
2023/09/15 10:10:40;;;;;;;1.10;1.00;;;19.50;68.10;;;;;;6124454;23;20131;-83
2023/09/15 10:13:07;;;;;;;1.23;1.10;;;19.50;68.10;;;;;;6150444;23;20132;-84
2023/09/15 10:15:34;;;;;;;1.10;1.05;;;19.60;68.10;;;;;;6124530;23;20310;-86
2023/09/15 10:17:59;;;;;;;1.30;1.20;;;19.60;68.00;;;;;;6124400;23;20139;-86
2023/09/15 10:20:25;;;;;;;1.58;1.30;;;19.60;67.90;;;;;;6150374;22;20215;-81
2023/09/15 10:22:51;;;;;;;1.40;1.30;;;19.60;67.80;;;;;;6150033;22;20183;-84
2023/09/15 10:25:17;;;;;;;1.40;1.25;;;19.60;68.50;;;;;;6100110;23;20183;-87
2023/09/15 10:27:45;;;;;;;1.10;1.00;;;19.60;67.70;;;;;;6150414;22;20147;-83
2023/09/15 10:30:11;;;;;;;1.77;1.20;;;19.60;67.60;;;;;;6099789;23;20150;-83
2023/09/15 10:32:38;;;;;;;1.40;1.30;;;19.60;67.60;;;;;;6123992;23;20154;-82
2023/09/15 10:35:04;;;;;;;1.55;1.23;;;19.60;67.60;;;;;;6123774;23;20239;-81
2023/09/15 10:37:30;;;;;;;1.88;1.42;;;19.60;67.50;;;;;;6100234;23;20224;-83
2023/09/15 10:39:58;;;;;;;1.65;1.30;;;19.60;67.10;;;;;;6099860;23;20560;-82
2023/09/15 10:42:23;;;;;;;1.50;1.08;;;19.70;67.00;;;;;;6150415;22;20442;-84
2023/09/15 10:44:50;;;;;;;1.70;1.38;;;19.60;66.90;;;;;;6123890;23;20621;-83
2023/09/15 10:47:16;;;;;;;1.80;1.27;;;19.60;66.70;;;;;;6123951;23;20136;-82
2023/09/15 10:50:01;;;;;;;1.45;1.20;;;19.60;66.60;;;;;;6075905;23;20148;-80
2023/09/15 10:52:35;;;;;;;1.42;1.33;;;19.70;66.40;;;;;;6200273;23;20160;-83
2023/09/15 10:55:01;;;;;;;1.00;0.95;;;19.70;66.20;;;;;;6100527;23;20159;-83
2023/09/15 10:57:27;;;;;;;1.33;1.10;;;19.70;66.20;;;;;;6101079;23;20181;-84
2023/09/15 10:59:54;;;;;;;1.38;1.23;;;19.60;65.90;;;;;;6100907;23;20607;-84
2023/09/15 11:02:20;;;;;;;1.20;1.10;;;19.70;65.80;;;;;;6078764;23;20139;-84
2023/09/15 11:04:47;;;;;;;1.00;0.90;;;19.70;65.80;;;;;;6125778;23;20175;-84
2023/09/15 11:07:16;;;;;;;1.75;1.27;;;19.70;65.70;;;;;;6100522;23;20242;-84
2023/09/15 11:09:44;;;;;;;1.33;1.17;;;19.70;65.60;;;;;;6100653;23;20148;-86
2023/09/15 11:12:13;;;;;;;1.20;1.10;;;19.70;65.60;;;;;;6177515;23;20558;-83
2023/09/15 11:14:38;;;;;;;1.10;1.00;;;19.60;65.70;;;;;;6151564;22;20189;-84
2023/09/15 11:17:04;;;;;;;1.30;1.20;;;19.60;65.60;;;;;;6151457;22;20214;-87
2023/09/15 11:19:33;;;;;;;1.20;1.10;;;19.60;65.60;;;;;;6125330;23;20642;-81
2023/09/15 11:22:03;;;;;;;1.30;1.20;;;19.70;65.70;;;;;;6125436;23;20135;-84
2023/09/15 11:24:33;;;;;;;1.17;1.08;;;19.60;65.60;;;;;;6120088;22;20275;-86
2023/09/15 11:27:00;;;;;;;1.38;1.27;;;19.60;65.60;;;;;;6071201;23;20633;-84
2023/09/15 11:29:27;;;;;;;1.75;1.35;;;19.60;65.60;;;;;;6120415;23;20152;-84
2023/09/15 11:31:53;;;;;;;1.27;1.13;;;19.60;65.60;;;;;;6096462;23;20132;-82
2023/09/15 11:34:19;;;;;;;1.58;1.30;;;19.60;65.60;;;;;;6121976;23;20147;-85
2023/09/15 11:36:45;;;;;;;1.30;1.20;;;19.60;65.60;;;;;;6122028;23;20141;-82
2023/09/15 11:39:11;;;;;;;1.02;0.90;;;19.60;65.40;;;;;;6119766;23;20443;-83
2023/09/15 11:41:38;;;;;;;1.30;1.15;;;19.60;64.90;;;;;;6121940;23;20240;-82
2023/09/15 11:44:06;;;;;;;1.45;1.35;;;19.60;64.90;;;;;;6121529;23;20140;-84
2023/09/15 11:46:34;;;;;;;1.33;1.10;;;19.70;64.50;;;;;;6096034;23;20202;-85
2023/09/15 11:49:00;;;;;;;1.20;1.10;;;19.70;64.40;;;;;;6120285;23;20179;-83
2023/09/15 11:51:26;;;;;;;1.40;1.23;;;19.70;64.30;;;;;;6121671;23;20556;-84
2023/09/15 11:53:52;;;;;;;1.30;1.20;;;19.70;64.30;;;;;;6121653;23;20572;-86
2023/09/15 11:56:19;;;;;;;1.52;1.30;;;19.70;64.10;;;;;;6121541;23;20143;-82
2023/09/15 11:58:49;;;;;;;1.40;1.20;;;19.70;63.80;;;;;;6119862;23;20155;-85
2023/09/15 12:01:16;;;;;;;1.55;1.45;;;19.70;63.80;;;;;;6096773;23;20128;-85
2023/09/15 12:03:42;;;;;;;1.15;1.00;;;19.70;63.50;;;;;;6120130;23;20152;-81
2023/09/15 12:06:07;;;;;;;1.05;0.95;;;19.80;63.50;;;;;;6119569;23;20255;-84
2023/09/15 12:08:33;;;;;;;1.27;1.15;;;19.70;63.50;;;;;;6095012;23;20467;-82
2023/09/15 12:10:59;;;;;;;1.10;1.00;;;19.80;63.60;;;;;;6121654;23;20186;-81
2023/09/15 12:13:24;;;;;;;0.93;0.90;;;19.70;63.40;;;;;;6121467;23;20140;-85
2023/09/15 12:15:50;;;;;;;1.30;1.13;;;19.70;63.50;;;;;;6121867;23;20164;-83
2023/09/15 12:18:16;;;;;;;1.35;1.00;;;19.70;63.10;;;;;;6071675;23;20148;-83
2023/09/15 12:20:47;;;;;;;1.10;1.00;;;19.70;63.10;;;;;;6122044;23;20145;-81
2023/09/15 12:23:13;;;;;;;1.58;1.13;;;19.70;63.20;;;;;;6119906;22;20191;-84
2023/09/15 12:25:39;;;;;;;1.20;1.10;;;19.60;62.90;;;;;;6119972;23;20184;-84
2023/09/15 12:28:06;;;;;;;0.90;0.82;;;19.70;63.00;;;;;;6072092;23;20468;-82
2023/09/15 12:30:33;;;;;;;1.10;1.00;;;19.60;62.70;;;;;;6096363;23;20137;-83
2023/09/15 12:32:59;;;;;;;1.42;1.20;;;19.70;62.70;;;;;;6120282;23;20133;-86
2023/09/15 12:35:25;;;;;;;1.33;1.23;;;19.70;62.70;;;;;;6121392;23;20140;-83
2023/09/15 12:37:52;;;;;;;1.30;1.10;;;19.70;62.70;;;;;;6095791;23;20160;-80
2023/09/15 12:40:18;;;;;;;1.13;1.02;;;19.70;62.60;;;;;;6120272;23;20211;-86
2023/09/15 12:42:43;;;;;;;1.67;1.33;;;19.60;62.40;;;;;;6120278;23;20163;-83
2023/09/15 12:45:09;;;;;;;1.17;1.08;;;19.70;62.50;;;;;;6119863;23;20172;-82